Time;durP1;ratioP1;P1;durP2;ratioP2;P2;SDS_P1;SDS_P2;PMS_P1;PMS_P2;Temp;Humidity;BMP_temperature;BMP_pressure;BME280_temperature;BME280_humidity;BME280_pressure;Samples;Min_cycle;Max_cycle;Signal;HPM_P1;HPM_P2
2022/04/29 00:02:05;;;;;;;7.65;4.40;;;;;;;11.80;46.52;99310.94;5090146;28;20041;-91
2022/04/29 00:04:31;;;;;;;6.82;4.47;;;;;;;11.75;46.98;99303.94;5090483;28;20040;-93
2022/04/29 00:06:56;;;;;;;7.95;4.50;;;;;;;11.91;46.80;99308.03;5090256;28;20498;-89
2022/04/29 00:09:23;;;;;;;10.27;4.88;;;;;;;11.90;47.18;99327.59;5090515;28;20036;-92
2022/04/29 00:11:50;;;;;;;6.70;4.78;;;;;;;11.88;47.14;99314.31;5090084;28;20060;-88
2022/04/29 00:14:17;;;;;;;7.13;4.55;;;;;;;11.82;46.81;99290.44;5089443;28;20040;-90
2022/04/29 00:16:43;;;;;;;7.32;4.43;;;;;;;11.86;47.19;99312.56;5087029;28;20049;-91
2022/04/29 00:19:09;;;;;;;8.27;4.18;;;;;;;11.83;47.46;99300.19;5090092;28;20037;-90
2022/04/29 00:21:34;;;;;;;6.07;4.15;;;;;;;11.75;47.31;99294.16;5089691;28;20078;-92
2022/04/29 00:24:00;;;;;;;6.70;4.65;;;;;;;11.86;47.39;99304.56;5089912;28;20123;-92
2022/04/29 00:26:26;;;;;;;7.13;4.13;;;;;;;11.74;47.73;99288.88;5091396;28;20048;-91
2022/04/29 00:28:52;;;;;;;7.47;4.50;;;;;;;11.71;48.23;99300.50;5089967;28;20379;-94
2022/04/29 00:31:19;;;;;;;6.57;4.22;;;;;;;11.77;48.05;99318.97;5089781;28;20037;-92
2022/04/29 00:33:45;;;;;;;5.20;3.80;;;;;;;11.75;48.22;99314.59;5089129;28;20119;-91
2022/04/29 00:36:10;;;;;;;6.72;4.68;;;;;;;11.75;48.21;99317.25;5089655;28;20119;-90
2022/04/29 00:38:36;;;;;;;6.57;4.25;;;;;;;11.62;48.58;99311.34;5089677;28;20036;-92
2022/04/29 00:41:02;;;;;;;6.82;4.40;;;;;;;11.60;48.72;99321.16;5090259;28;20051;-93
2022/04/29 00:43:28;;;;;;;6.35;4.28;;;;;;;11.55;48.72;99317.72;5088301;28;20040;-91
2022/04/29 00:45:53;;;;;;;6.63;4.32;;;;;;;11.50;49.04;99318.69;5089303;28;20494;-91
2022/04/29 00:48:21;;;;;;;7.05;4.57;;;;;;;11.45;49.35;99317.03;5089650;28;20385;-92
2022/04/29 00:50:46;;;;;;;7.43;4.70;;;;;;;11.45;49.00;99312.59;5089773;28;20036;-92
2022/04/29 00:53:13;;;;;;;7.40;4.28;;;;;;;11.40;49.38;99305.59;5089872;28;20170;-89
2022/04/29 00:55:39;;;;;;;6.78;4.40;;;;;;;11.40;49.80;99319.78;5087345;28;20044;-92
2022/04/29 00:58:11;;;;;;;6.95;4.70;;;;;;;11.35;50.02;99303.06;5087983;28;20044;-92
2022/04/29 01:00:38;;;;;;;6.45;4.55;;;;;;;11.23;50.17;99293.56;5084635;28;20093;-92
2022/04/29 01:03:05;;;;;;;8.60;4.90;;;;;;;11.37;50.35;99306.56;5088911;28;20128;-92
2022/04/29 01:05:33;;;;;;;6.20;4.60;;;;;;;11.26;50.55;99305.91;5089064;28;20032;-92
2022/04/29 01:07:59;;;;;;;7.25;4.82;;;;;;;11.09;51.13;99295.63;5078375;28;20036;-92
2022/04/29 01:10:24;;;;;;;7.93;4.65;;;;;;;11.04;51.74;99298.38;5076006;28;20055;-91
2022/04/29 01:12:54;;;;;;;6.60;4.70;;;;;;;10.92;51.57;99292.44;5075451;28;20092;-91
2022/04/29 01:15:20;;;;;;;;;;;;;;;11.02;51.77;99317.97;5075892;28;20418;-92
2022/04/29 01:17:48;;;;;;;7.38;4.57;;;;;;;11.06;51.65;99301.00;5075444;28;19942;-91
2022/04/29 01:20:15;;;;;;;7.07;4.27;;;;;;;10.95;51.86;99290.59;5075149;28;20110;-90
2022/04/29 01:22:43;;;;;;;7.75;4.70;;;;;;;11.06;51.79;99316.97;5075672;28;20037;-91
2022/04/29 01:25:09;;;;;;;7.18;4.50;;;;;;;11.00;51.84;99291.38;5075115;28;20075;-91
2022/04/29 01:27:35;;;;;;;7.13;4.75;;;;;;;11.00;52.60;99306.47;5075487;28;20048;-94
2022/04/29 01:30:04;;;;;;;7.20;4.50;;;;;;;11.06;52.64;99311.63;5075424;28;20037;-91
2022/04/29 01:32:32;;;;;;;5.72;4.30;;;;;;;11.02;52.78;99299.31;5074707;28;20040;-92
2022/04/29 01:34:58;;;;;;;6.20;4.70;;;;;;;10.84;53.05;99297.88;5074976;28;20043;-93
2022/04/29 01:40:23;;;;;;;6.13;4.28;;;;;;;11.02;52.98;99317.97;5131078;27;20734;-92
2022/04/29 01:42:49;;;;;;;7.65;4.60;;;;;;;11.08;52.93;99300.06;5131520;27;20066;-91
2022/04/29 01:45:15;;;;;;;9.77;4.63;;;;;;;11.11;53.01;99301.78;5131822;27;20042;-91
2022/04/29 01:47:41;;;;;;;6.65;4.55;;;;;;;11.10;52.98;99305.34;5129590;28;20556;-91
2022/04/29 01:50:07;;;;;;;6.38;4.60;;;;;;;11.08;53.40;99296.50;5131011;27;20154;-92
2022/04/29 01:52:33;;;;;;;7.70;4.55;;;;;;;11.01;53.00;99282.47;5131468;28;20043;-93
2022/04/29 01:54:59;;;;;;;7.40;4.60;;;;;;;11.09;53.29;99296.50;5130856;28;20123;-93
2022/04/29 01:57:26;;;;;;;9.73;4.75;;;;;;;10.94;53.68;99269.31;5130682;28;20044;-91
2022/04/29 01:59:52;;;;;;;7.30;4.95;;;;;;;11.07;53.67;99300.09;5130955;27;20031;-91
2022/04/29 02:02:19;;;;;;;7.40;4.82;;;;;;;11.10;53.41;99287.63;5129134;27;20088;-94
2022/04/29 02:04:45;;;;;;;6.97;4.82;;;;;;;11.18;53.71;99295.41;5129378;28;20047;-93
2022/04/29 02:07:11;;;;;;;10.35;5.40;;;;;;;11.19;53.69;99290.97;5131087;27;20105;-91
2022/04/29 02:09:36;;;;;;;7.60;5.10;;;;;;;11.12;53.75;99289.34;5130973;27;20092;-92
2022/04/29 02:12:04;;;;;;;15.98;5.00;;;;;;;11.04;54.51;99282.41;5130646;27;20039;-92
2022/04/29 02:14:32;;;;;;;8.30;4.97;;;;;;;11.03;54.91;99298.41;5130670;27;20114;-90
2022/04/29 02:16:58;;;;;;;7.50;5.10;;;;;;;11.01;55.02;99295.75;5130832;27;20043;-88
2022/04/29 02:19:25;;;;;;;6.90;4.70;;;;;;;10.93;55.08;99275.53;5130505;27;20035;-93
2022/04/29 02:21:51;;;;;;;6.80;5.13;;;;;;;10.95;55.13;99276.38;5130536;27;20074;-91
2022/04/29 02:24:17;;;;;;;9.95;5.43;;;;;;;10.95;55.25;99279.94;5130773;28;20039;-93
2022/04/29 02:26:43;;;;;;;8.15;4.75;;;;;;;10.86;55.85;99264.16;5130503;27;20130;-91
2022/04/29 02:29:09;;;;;;;8.25;4.80;;;;;;;10.98;55.66;99266.56;5130439;27;20435;-93
2022/04/29 02:31:36;;;;;;;8.35;5.20;;;;;;;11.04;56.04;99273.56;5130195;27;20439;-92
2022/04/29 02:34:02;;;;;;;8.38;5.40;;;;;;;11.16;55.64;99278.59;5130569;28;20552;-90
2022/04/29 02:36:28;;;;;;;9.07;5.53;;;;;;;11.16;56.02;99283.94;5130036;28;20035;-89
2022/04/29 02:38:53;;;;;;;6.50;4.65;;;;;;;11.18;55.95;99270.59;5130669;27;20043;-90
2022/04/29 02:41:19;;;;;;;8.45;4.80;;;;;;;11.26;55.59;99287.28;5130163;28;20388;-92
2022/04/29 02:43:45;;;;;;;8.27;4.75;;;;;;;11.21;55.50;99268.75;5129774;28;20088;-91
2022/04/29 02:46:11;;;;;;;9.40;5.10;;;;;;;11.24;55.76;99289.97;5129929;27;20039;-90
2022/04/29 02:48:38;;;;;;;7.30;4.63;;;;;;;11.26;55.78;99284.63;5130161;27;20412;-91
2022/04/29 02:51:04;;;;;;;7.45;5.35;;;;;;;11.20;55.61;99266.97;5119855;27;20036;-89
2022/04/29 02:53:30;;;;;;;8.02;5.03;;;;;;;11.16;55.67;99269.75;5115845;27;20035;-92
2022/04/29 02:55:56;;;;;;;9.20;5.00;;;;;;;11.08;56.32;99281.44;5116009;28;20558;-91
2022/04/29 02:58:22;;;;;;;6.70;5.00;;;;;;;10.97;56.35;99274.56;5115318;28;20036;-91
2022/04/29 03:00:48;;;;;;;6.38;4.78;;;;;;;10.87;56.57;99266.78;5115947;28;20457;-92
2022/04/29 03:03:14;;;;;;;7.10;5.10;;;;;;;10.78;56.50;99253.69;5115987;28;20112;-91
2022/04/29 03:05:41;;;;;;;8.50;5.15;;;;;;;10.80;56.65;99267.81;5115949;28;20067;-90
2022/04/29 03:08:08;;;;;;;8.40;4.97;;;;;;;10.82;56.79;99276.66;5115497;28;20113;-89
2022/04/29 03:10:34;;;;;;;9.35;4.68;;;;;;;10.58;57.53;99263.81;5116232;28;20071;-91
2022/04/29 03:13:00;;;;;;;7.47;5.03;;;;;;;10.51;57.71;99248.88;5116218;27;20040;-93
2022/04/29 03:15:27;;;;;;;7.47;4.80;;;;;;;10.51;57.80;99259.53;5115762;28;20169;-92
2022/04/29 03:20:52;;;;;;;7.97;5.28;;;;;;;10.51;58.06;99278.16;5131579;27;20383;-92
2022/04/29 03:23:19;;;;;;;7.97;5.30;;;;;;;10.33;58.18;99266.06;5131458;27;20608;-93
2022/04/29 03:25:46;;;;;;;10.63;5.13;;;;;;;10.31;58.21;99263.44;5131526;27;20054;-92
2022/04/29 03:28:12;;;;;;;9.02;5.32;;;;;;;10.41;58.07;99270.34;5131003;28;20046;-93
2022/04/29 03:30:38;;;;;;;8.93;5.22;;;;;;;10.54;57.70;99286.06;5131427;27;20036;-92
2022/04/29 03:33:05;;;;;;;8.30;4.90;;;;;;;10.51;57.83;99275.47;5131234;27;20035;-93
2022/04/29 03:35:32;;;;;;;8.35;4.93;;;;;;;10.53;57.68;99293.16;5129973;28;20031;-90
2022/04/29 03:37:59;;;;;;;7.78;5.15;;;;;;;10.55;57.81;99290.47;5131107;28;20053;-91
2022/04/29 03:40:25;;;;;;;8.45;5.13;;;;;;;10.64;56.99;99285.84;5131174;28;20092;-91
2022/04/29 03:42:53;;;;;;;8.30;4.82;;;;;;;10.62;57.50;99289.44;5131088;28;20062;-92
2022/04/29 03:45:20;;;;;;;9.52;5.07;;;;;;;10.61;57.39;99285.06;5131425;28;20520;-90
2022/04/29 03:47:45;;;;;;;8.55;5.03;;;;;;;10.61;57.23;99287.72;5131053;27;20393;-91
2022/04/29 03:50:13;;;;;;;9.40;4.80;;;;;;;10.71;56.46;99283.06;5132036;28;20028;-92
2022/04/29 03:52:46;;;;;;;9.68;5.57;;;;;;;10.66;56.90;99267.22;5130810;28;20050;-91
2022/04/29 03:55:15;;;;;;;7.95;4.88;;;;;;;10.71;56.75;99283.94;5131241;28;20036;-90
2022/04/29 03:57:41;;;;;;;10.77;5.23;;;;;;;10.71;56.90;99278.63;5128877;28;20040;-90
2022/04/29 04:00:08;;;;;;;9.30;5.15;;;;;;;10.72;56.86;99282.19;5129912;28;20035;-90
2022/04/29 04:02:34;;;;;;;8.25;5.35;;;;;;;10.68;57.78;99278.69;5128847;28;20035;-89
2022/04/29 04:05:00;;;;;;;6.82;4.93;;;;;;;10.65;57.03;99269.00;5130844;27;20032;-91
2022/04/29 04:07:26;;;;;;;8.35;4.93;;;;;;;10.66;57.80;99259.22;5130450;28;20035;-91
2022/04/29 04:09:51;;;;;;;7.30;5.18;;;;;;;10.69;57.18;99270.69;5130709;28;20042;-92
2022/04/29 04:12:19;;;;;;;8.70;5.50;;;;;;;10.77;56.60;99277.63;5130642;28;20059;-92
2022/04/29 04:14:44;;;;;;;7.45;5.05;;;;;;;10.69;57.17;99270.69;5130795;28;20041;-92
2022/04/29 04:17:10;;;;;;;9.98;5.35;;;;;;;10.73;56.92;99267.97;5130272;28;20035;-93
2022/04/29 04:19:36;;;;;;;10.18;5.00;;;;;;;10.80;57.04;99259.84;5129915;27;20043;-94
2022/04/29 04:22:02;;;;;;;8.57;5.68;;;;;;;10.90;56.72;99281.81;5129992;28;20388;-92
2022/04/29 04:24:28;;;;;;;8.90;5.78;;;;;;;10.81;56.31;99269.56;5129948;28;20047;-92
2022/04/29 04:26:54;;;;;;;8.13;5.28;;;;;;;10.83;57.38;99272.22;5129738;28;20542;-91
2022/04/29 04:29:21;;;;;;;8.52;5.47;;;;;;;10.73;56.77;99265.31;5130166;28;20031;-92
2022/04/29 04:31:47;;;;;;;8.82;5.78;;;;;;;10.78;57.13;99285.59;5117336;28;20031;-90
2022/04/29 04:37:14;;;;;;;8.23;5.28;;;;;;;10.87;57.18;99280.09;5057531;27;20383;-93
2022/04/29 04:39:39;;;;;;;10.57;5.93;;;;;;;10.97;56.65;99286.09;5051814;28;20037;-92
2022/04/29 04:42:06;;;;;;;12.52;6.35;;;;;;;10.94;56.76;99274.66;5057687;28;20039;-93
2022/04/29 04:44:32;;;;;;;11.98;6.18;;;;;;;11.04;56.32;99277.09;5052746;28;20041;-90
2022/04/29 04:46:58;;;;;;;9.25;6.00;;;;;;;11.06;55.97;99277.03;5057514;28;20102;-92
2022/04/29 04:49:23;;;;;;;9.40;5.85;;;;;;;11.26;55.90;99289.94;5051866;28;20107;-91
2022/04/29 04:51:49;;;;;;;9.93;6.18;;;;;;;11.04;56.56;99273.56;5057250;28;20044;-90
2022/04/29 04:54:16;;;;;;;8.15;5.80;;;;;;;10.98;56.55;99253.25;5054079;28;20067;-92
2022/04/29 04:56:42;;;;;;;8.57;5.72;;;;;;;11.10;56.57;99279.63;5050467;28;20437;-93
2022/04/29 04:59:08;;;;;;;10.60;6.05;;;;;;;11.12;56.39;99273.38;5052593;28;20037;-93
2022/04/29 05:01:33;;;;;;;9.90;6.05;;;;;;;11.09;56.39;99256.56;5054672;28;20486;-93
2022/04/29 05:03:59;;;;;;;9.70;5.65;;;;;;;11.15;56.67;99278.66;5054421;28;20045;-92
2022/04/29 05:06:25;;;;;;;8.07;5.75;;;;;;;11.18;57.03;99283.91;5052811;28;20049;-91
2022/04/29 05:08:51;;;;;;;8.65;5.88;;;;;;;11.06;56.76;99266.38;5060278;28;20072;-88
2022/04/29 05:11:18;;;;;;;9.30;6.00;;;;;;;11.28;56.85;99283.69;5050511;28;20038;-92
2022/04/29 05:13:44;;;;;;;7.93;4.95;;;;;;;11.30;56.39;99276.53;5050949;28;20092;-91
2022/04/29 05:16:10;;;;;;;8.75;5.65;;;;;;;11.50;56.24;99300.03;5049893;28;20796;-91
2022/04/29 05:18:37;;;;;;;10.52;6.78;;;;;;;11.45;56.21;99272.66;5057306;28;20045;-91
2022/04/29 05:21:03;;;;;;;10.00;5.95;;;;;;;11.80;55.08;99291.41;5057021;28;20125;-92
2022/04/29 05:23:28;;;;;;;8.70;5.72;;;;;;;12.12;53.98;99296.84;5052761;28;20128;-91
2022/04/29 05:25:54;;;;;;;8.77;6.00;;;;;;;12.49;53.04;99290.56;5051940;28;20052;-91
2022/04/29 05:28:22;;;;;;;9.18;5.93;;;;;;;12.37;52.56;99269.56;5051555;28;20087;-93
2022/04/29 05:30:48;;;;;;;10.07;5.63;;;;;;;12.68;52.48;99293.59;5051056;28;20199;-92
2022/04/29 05:33:14;;;;;;;9.75;5.80;;;;;;;12.67;51.53;99275.00;5051534;28;20063;-90
2022/04/29 05:35:40;;;;;;;7.70;5.68;;;;;;;12.52;51.68;99263.81;5055046;28;20454;-93
2022/04/29 05:38:06;;;;;;;11.38;5.90;;;;;;;12.92;51.44;99294.75;5053196;28;20043;-88
2022/04/29 05:43:40;;;;;;;10.90;6.07;;;;;;;12.63;52.01;99294.66;5144451;27;20358;-90
2022/04/29 05:46:05;;;;;;;13.55;6.78;;;;;;;12.62;52.42;99295.56;5141983;27;20150;-91
2022/04/29 05:48:31;;;;;;;14.30;6.63;;;;;;;12.90;52.15;99312.59;5144630;27;20043;-94
2022/04/29 05:50:58;;;;;;;12.50;7.07;;;;;;;12.93;51.96;99308.97;5148739;27;20129;-91
2022/04/29 05:53:23;;;;;;;16.15;7.03;;;;;;;12.82;52.08;99293.25;5146734;27;20046;-93
2022/04/29 05:55:49;;;;;;;13.80;7.22;;;;;;;12.93;51.42;99312.50;5146555;27;20079;-91
2022/04/29 05:58:15;;;;;;;12.93;6.70;;;;;;;13.18;51.83;99309.13;5145445;27;20063;-89
2022/04/29 06:00:42;;;;;;;11.60;6.47;;;;;;;13.20;51.00;99285.91;5142379;27;20492;-93
2022/04/29 06:03:08;;;;;;;11.98;7.65;;;;;;;13.23;50.66;99292.97;5144099;27;20046;-93
2022/04/29 06:05:34;;;;;;;15.90;7.40;;;;;;;13.23;50.92;99293.84;5146302;27;20043;-91
2022/04/29 06:07:59;;;;;;;14.18;7.15;;;;;;;13.26;50.06;99277.72;5141934;27;20041;-90
2022/04/29 06:10:25;;;;;;;14.60;7.82;;;;;;;13.17;50.12;99296.69;5147197;27;20067;-88
2022/04/29 06:12:51;;;;;;;18.67;8.52;;;;;;;13.15;51.51;99294.06;5142501;27;20042;-93
2022/04/29 06:15:17;;;;;;;11.93;7.20;;;;;;;13.53;51.48;99296.53;5144625;27;20040;-89
2022/04/29 06:17:45;;;;;;;11.75;7.50;;;;;;;13.64;50.48;99299.78;5146178;27;20063;-89
2022/04/29 06:20:11;;;;;;;11.60;6.90;;;;;;;13.94;50.20;99302.38;5143572;27;20042;-93
2022/04/29 06:22:42;;;;;;;10.38;6.80;;;;;;;13.85;49.34;99282.16;5142957;27;20046;-92
2022/04/29 06:25:08;;;;;;;11.65;7.00;;;;;;;14.02;48.22;99284.28;5143498;27;20039;-91
2022/04/29 06:27:34;;;;;;;12.68;7.25;;;;;;;13.76;48.80;99290.47;5143595;27;20032;-92
2022/04/29 06:30:00;;;;;;;13.13;7.20;;;;;;;13.99;49.71;99303.13;5146530;27;20096;-90
2022/04/29 06:32:25;;;;;;;10.70;6.38;;;;;;;14.24;48.98;99299.63;5146922;27;20069;-91
2022/04/29 06:34:52;;;;;;;11.63;6.15;;;;;;;14.48;48.67;99296.13;5142124;27;20053;-90
2022/04/29 06:37:20;;;;;;;13.60;6.20;;;;;;;14.47;47.83;99285.47;5147443;27;20036;-93
2022/04/29 06:39:46;;;;;;;11.15;6.53;;;;;;;14.51;47.28;99292.47;5140604;27;20039;-92
2022/04/29 06:42:12;;;;;;;9.52;6.10;;;;;;;14.72;48.18;99298.91;5144285;27;20039;-93
2022/04/29 06:44:37;;;;;;;9.73;5.82;;;;;;;14.66;46.64;99273.25;5144071;27;20497;-91
2022/04/29 06:47:04;;;;;;;10.35;6.00;;;;;;;14.68;46.77;99284.78;5142481;27;20041;-91
2022/04/29 06:49:30;;;;;;;8.77;5.75;;;;;;;14.74;45.87;99278.31;5139292;27;20048;-91
2022/04/29 06:51:58;;;;;;;12.75;6.40;;;;;;;15.01;46.14;99276.44;5143414;27;20553;-94
2022/04/29 06:54:24;;;;;;;9.07;5.75;;;;;;;15.11;44.22;99256.38;5134084;27;20050;-91
2022/04/29 06:56:49;;;;;;;10.35;5.80;;;;;;;15.51;45.09;99275.44;5131208;27;20036;-92
2022/04/29 06:59:15;;;;;;;9.77;5.88;;;;;;;15.61;44.50;99252.69;5131291;27;20043;-93
2022/04/29 07:01:41;;;;;;;8.10;6.13;;;;;;;15.38;45.26;99262.50;5129133;27;20031;-93
2022/04/29 07:04:06;;;;;;;8.65;5.72;;;;;;;15.40;44.83;99238.34;5132547;27;20040;-89
2022/04/29 07:06:33;;;;;;;10.90;6.82;;;;;;;15.43;43.70;99265.00;5131128;27;20035;-90
2022/04/29 07:09:02;;;;;;;9.55;6.65;;;;;;;15.57;44.83;99277.84;5125833;27;20464;-91
2022/04/29 07:11:31;;;;;;;11.70;5.90;;;;;;;15.94;44.78;99265.69;5129264;27;20134;-89
2022/04/29 07:13:57;;;;;;;9.32;6.30;;;;;;;16.17;42.93;99246.81;5126089;27;20038;-92
2022/04/29 07:16:22;;;;;;;10.75;6.68;;;;;;;16.23;42.68;99272.53;5130470;27;20060;-91
2022/04/29 07:18:48;;;;;;;11.88;6.25;;;;;;;16.19;41.46;99253.00;5128261;27;20443;-92
2022/04/29 07:21:14;;;;;;;10.80;5.85;;;;;;;16.12;41.70;99248.84;5128299;27;20553;-93
2022/04/29 07:23:40;;;;;;;13.52;6.15;;;;;;;16.41;41.03;99254.78;5129701;27;20043;-90
2022/04/29 07:26:08;;;;;;;11.50;6.07;;;;;;;16.69;40.82;99254.44;5122936;27;20494;-93
2022/04/29 07:28:33;;;;;;;10.43;6.18;;;;;;;16.80;38.76;99254.84;5127002;27;20035;-92
2022/04/29 07:31:00;;;;;;;11.40;5.93;;;;;;;16.48;38.01;99239.25;5128656;27;20046;-93
2022/04/29 07:33:26;;;;;;;12.32;6.07;;;;;;;16.92;39.45;99252.59;5124734;27;20051;-92
2022/04/29 07:41:52;;;;;;;10.82;5.63;;;;;;;17.43;37.64;99243.03;5187431;27;20384;-91
2022/04/29 07:44:18;;;;;;;9.48;5.57;;;;;;;17.13;37.63;99232.78;5165215;27;20121;-92
2022/04/29 07:46:46;;;;;;;12.10;5.60;;;;;;;16.99;37.66;99244.16;5164857;27;20134;-91
2022/04/29 07:49:13;;;;;;;9.65;6.18;;;;;;;17.36;37.57;99247.81;5162847;27;20049;-94
2022/04/29 07:51:39;;;;;;;9.98;5.70;;;;;;;17.35;36.49;99234.44;5163316;27;20042;-92
2022/04/29 07:54:06;;;;;;;10.65;6.30;;;;;;;17.32;36.02;99238.16;5166725;27;20042;-92
2022/04/29 07:56:32;;;;;;;8.45;5.47;;;;;;;16.84;36.52;99247.53;5161592;27;20526;-90
2022/04/29 07:58:59;;;;;;;9.82;5.72;;;;;;;16.97;36.58;99251.41;5166029;27;20043;-89
2022/04/29 08:01:26;;;;;;;11.32;5.80;;;;;;;16.80;36.85;99248.63;5167264;27;20074;-94
2022/04/29 08:03:51;;;;;;;11.40;5.50;;;;;;;17.16;37.66;99239.84;5167277;27;20050;-92
2022/04/29 08:06:17;;;;;;;10.15;6.68;;;;;;;16.76;37.18;99242.50;5164110;27;20043;-92
2022/04/29 08:08:43;;;;;;;10.18;5.68;;;;;;;16.83;37.34;99243.13;5161273;27;20054;-92
2022/04/29 08:11:09;;;;;;;10.75;6.20;;;;;;;16.91;37.03;99235.56;5162971;27;20125;-91
2022/04/29 08:13:36;;;;;;;10.60;5.65;;;;;;;17.10;37.34;99240.97;5163147;27;20462;-91
2022/04/29 08:16:04;;;;;;;11.90;5.82;;;;;;;17.56;36.86;99248.69;5161731;27;20054;-91
2022/04/29 08:18:30;;;;;;;12.82;5.80;;;;;;;17.72;36.97;99257.78;5167732;27;20031;-91
2022/04/29 08:20:57;;;;;;;9.48;5.57;;;;;;;17.23;36.78;99247.53;5161836;27;20046;-91
2022/04/29 08:23:23;;;;;;;12.82;6.18;;;;;;;17.49;36.16;99248.13;5166222;27;20066;-91
2022/04/29 08:25:49;;;;;;;10.82;5.25;;;;;;;17.89;35.80;99275.81;5162282;27;20066;-89
2022/04/29 08:28:15;;;;;;;9.07;5.55;;;;;;;17.66;34.85;99268.81;5165666;27;20515;-91
2022/04/29 08:30:41;;;;;;;11.63;5.35;;;;;;;17.73;33.92;99248.75;5159548;27;20067;-91
2022/04/29 08:33:11;;;;;;;8.20;5.60;;;;;;;17.41;34.91;99261.94;5165539;27;20043;-92
2022/04/29 08:35:37;;;;;;;7.97;5.25;;;;;;;17.41;35.37;99269.09;5161189;27;20038;-92
2022/04/29 08:38:04;;;;;;;8.30;4.90;;;;;;;17.66;34.83;99261.63;5165618;27;20061;-92
2022/04/29 08:40:30;;;;;;;9.18;5.30;;;;;;;17.66;34.82;99271.50;5167281;27;20098;-93
2022/04/29 08:42:57;;;;;;;8.77;5.10;;;;;;;17.77;35.05;99266.47;5162201;27;20037;-92
2022/04/29 08:45:23;;;;;;;9.68;5.35;;;;;;;17.89;34.82;99261.47;5169050;27;20422;-95
2022/04/29 08:47:49;;;;;;;9.20;5.40;;;;;;;18.26;35.08;99261.41;5164343;27;20046;-94
2022/04/29 08:50:18;;;;;;;9.30;5.68;;;;;;;18.26;34.13;99274.88;5162244;27;20027;-93
2022/04/29 08:52:44;;;;;;;8.50;4.60;;;;;;;18.27;33.29;99267.66;5155057;27;20042;-92
2022/04/29 09:01:08;;;;;;;9.23;5.30;;;;;;;18.28;34.69;99261.31;5112981;27;20904;-93
2022/04/29 09:03:35;;;;;;;7.18;4.60;;;;;;;18.37;33.67;99260.00;5112564;28;20040;-92
2022/04/29 09:06:04;;;;;;;9.40;5.20;;;;;;;18.30;34.80;99247.78;5112112;28;20061;-93
2022/04/29 09:08:37;;;;;;;;;;;;;;;18.58;34.53;99280.41;5112395;28;20490;-93
2022/04/29 09:11:05;;;;;;;11.05;5.50;;;;;;;18.36;33.91;99269.00;5113054;28;20015;-93
2022/04/29 09:13:32;;;;;;;11.18;5.15;;;;;;;18.70;35.17;99253.81;5111596;28;20028;-92
2022/04/29 09:15:59;;;;;;;7.88;5.18;;;;;;;18.94;33.39;99273.22;5113065;28;20394;-94
2022/04/29 09:18:34;;;;;;;10.98;4.90;;;;;;;18.76;32.86;99243.56;5111732;28;20096;-92
2022/04/29 09:21:04;;;;;;;9.18;5.15;;;;;;;18.70;34.22;99261.88;5112611;28;20063;-92
2022/04/29 09:23:31;;;;;;;9.95;5.10;;;;;;;19.00;33.69;99270.19;5112529;28;20078;-92
2022/04/29 09:26:01;;;;;;;7.47;4.70;;;;;;;18.32;32.92;99232.41;5111526;28;20070;-93
2022/04/29 09:28:27;;;;;;;8.23;4.82;;;;;;;18.13;32.32;99241.44;5110998;28;20031;-92
2022/04/29 09:30:56;;;;;;;14.95;4.63;;;;;;;18.30;30.90;99227.09;5111312;28;20079;-90
2022/04/29 09:33:24;;;;;;;7.90;4.50;;;;;;;18.64;30.87;99234.28;5110840;28;20503;-92
2022/04/29 09:35:52;;;;;;;15.20;5.28;;;;;;;18.95;31.54;99248.00;5112824;28;20042;-91
2022/04/29 09:41:23;;;;;;;10.35;4.63;;;;;;;18.84;32.01;99248.56;5104985;27;20376;-94
2022/04/29 09:43:49;;;;;;;8.15;4.65;;;;;;;18.65;31.31;99241.44;5072160;28;20182;-90
2022/04/29 09:46:18;;;;;;;13.88;4.80;;;;;;;18.62;30.97;99240.72;5071317;28;20040;-94
2022/04/29 09:48:50;;;;;;;;;;;;;;;18.73;31.21;99259.00;5071497;28;20094;-94
2022/04/29 09:51:42;;;;;;;7.20;4.45;;;;;;;18.95;31.83;99254.25;5070791;28;19924;-91
2022/04/29 09:54:10;;;;;;;7.47;4.63;;;;;;;18.90;29.26;99242.84;5070182;28;20044;-94
2022/04/29 09:56:38;;;;;;;7.57;4.25;;;;;;;19.07;29.38;99221.25;5072084;28;20033;-91
2022/04/29 09:59:05;;;;;;;6.07;4.10;;;;;;;19.16;30.15;99245.97;5070700;28;20620;-93
2022/04/29 10:01:31;;;;;;;6.65;4.57;;;;;;;19.24;30.20;99249.13;5069599;28;20119;-93
2022/04/29 10:04:00;;;;;;;7.10;4.65;;;;;;;19.20;30.08;99229.53;5071394;28;20047;-93
2022/04/29 10:06:28;;;;;;;7.43;4.15;;;;;;;19.26;30.26;99220.25;5071716;28;20048;-94
2022/04/29 10:08:56;;;;;;;6.05;4.53;;;;;;;19.42;28.98;99231.03;5071845;28;20559;-92
2022/04/29 10:11:25;;;;;;;6.35;3.97;;;;;;;19.47;29.34;99246.03;5071218;28;20124;-91
2022/04/29 10:13:53;;;;;;;;;;;;;;;19.29;28.81;99223.63;5072377;28;20044;-94
2022/04/29 10:16:20;;;;;;;9.70;4.90;;;;;;;19.02;30.51;99236.81;5071499;28;19948;-92
2022/04/29 10:21:56;;;;;;;7.97;4.93;;;;;;;19.06;30.21;99222.22;5132792;27;20386;-93
2022/04/29 10:24:24;;;;;;;7.90;4.70;;;;;;;19.26;30.83;99194.16;5128238;28;20043;-91
2022/04/29 10:26:53;;;;;;;6.55;4.43;;;;;;;19.12;29.40;99212.91;5132467;28;20058;-93
2022/04/29 10:29:19;;;;;;;6.30;4.15;;;;;;;18.96;29.31;99215.56;5133388;28;20037;-92
2022/04/29 10:32:03;;;;;;;6.90;4.47;;;;;;;18.71;30.43;99218.69;5132808;28;20040;-92
2022/04/29 10:34:30;;;;;;;5.75;4.28;;;;;;;18.77;28.80;99201.31;5129799;28;20038;-93
2022/04/29 10:36:58;;;;;;;9.77;4.93;;;;;;;18.94;30.92;99230.97;5133171;28;20051;-92
2022/04/29 10:39:24;;;;;;;7.57;4.25;;;;;;;18.99;31.55;99211.84;5128923;28;20042;-93
2022/04/29 10:42:02;;;;;;;6.20;3.92;;;;;;;19.09;32.62;99221.16;5132424;28;20043;-93
2022/04/29 10:44:28;;;;;;;7.10;4.32;;;;;;;19.24;32.77;99205.97;5131941;28;20127;-93
2022/04/29 10:46:55;;;;;;;8.30;4.38;;;;;;;18.80;30.58;99211.94;5131979;28;20127;-88
2022/04/29 10:49:22;;;;;;;7.47;4.40;;;;;;;18.83;30.81;99217.19;5132239;28;20046;-90
2022/04/29 10:51:50;;;;;;;7.50;4.30;;;;;;;18.91;31.66;99217.66;5125558;28;20043;-90
2022/04/29 10:54:44;;;;;;;8.00;4.32;;;;;;;19.19;28.65;99191.88;5131579;28;20031;-93
2022/04/29 10:57:12;;;;;;;9.48;4.50;;;;;;;19.14;30.09;99188.56;5128216;28;20043;-93
2022/04/29 10:59:57;;;;;;;6.22;4.10;;;;;;;19.53;29.39;99188.13;5132370;28;20044;-92
2022/04/29 11:02:25;;;;;;;8.95;4.47;;;;;;;19.21;29.84;99184.56;5131221;28;20036;-91
2022/04/29 11:04:52;;;;;;;6.93;4.32;;;;;;;19.50;31.48;99202.69;5130352;28;20040;-93
2022/04/29 11:07:43;;;;;;;7.00;4.18;;;;;;;19.06;31.53;99200.66;5129758;28;20143;-92
2022/04/29 11:10:14;;;;;;;6.93;4.40;;;;;;;18.80;31.50;99160.75;5118840;28;20038;-92
2022/04/29 11:12:41;;;;;;;8.32;4.32;;;;;;;18.73;34.14;99195.22;5130976;28;20039;-92
2022/04/29 11:15:10;;;;;;;6.53;4.40;;;;;;;18.41;32.89;99195.13;5129889;28;20044;-89
2022/04/29 11:17:37;;;;;;;7.28;4.80;;;;;;;18.37;33.07;99188.16;5130228;28;20544;-88
2022/04/29 11:20:17;;;;;;;6.93;4.80;;;;;;;18.67;34.11;99179.38;5130540;28;20126;-94
2022/04/29 11:25:58;;;;;;;6.50;4.57;;;;;;;18.68;35.57;99179.31;5090174;27;20388;-94
2022/04/29 11:28:25;;;;;;;6.47;4.57;;;;;;;18.74;35.25;99191.59;5091285;28;20047;-92
2022/04/29 11:30:59;;;;;;;6.93;4.80;;;;;;;18.52;33.87;99166.72;5089521;28;20512;-93
2022/04/29 11:33:25;;;;;;;8.30;4.40;;;;;;;18.36;35.97;99150.53;5090022;28;20036;-92
2022/04/29 11:35:53;;;;;;;7.40;5.22;;;;;;;18.31;34.98;99158.00;5090938;28;20074;-92
2022/04/29 11:38:19;;;;;;;15.05;4.78;;;;;;;18.58;33.62;99143.03;5090504;28;20042;-93
2022/04/29 11:40:45;;;;;;;7.93;4.63;;;;;;;18.89;33.27;99133.34;5091199;28;20123;-93
2022/04/29 11:43:12;;;;;;;5.95;4.43;;;;;;;19.08;34.95;99147.53;5091110;28;20127;-94
2022/04/29 11:45:40;;;;;;;6.80;5.30;;;;;;;19.16;33.70;99127.34;5090556;28;20547;-92
2022/04/29 11:48:08;;;;;;;7.40;4.85;;;;;;;19.15;34.02;99136.38;5090711;28;20051;-91
2022/04/29 11:50:35;;;;;;;6.90;4.35;;;;;;;19.24;32.93;99123.25;5091221;28;20040;-93
2022/04/29 11:53:06;;;;;;;6.78;4.57;;;;;;;19.31;34.03;99150.75;5089892;28;20055;-91
2022/04/29 11:55:32;;;;;;;6.78;4.35;;;;;;;19.02;33.24;99147.00;5090252;28;20071;-94
2022/04/29 11:57:58;;;;;;;8.48;4.32;;;;;;;18.78;31.69;99141.13;5090510;28;20060;-93
2022/04/29 12:00:27;;;;;;;8.13;4.50;;;;;;;19.00;32.92;99135.44;5090927;28;20059;-93
2022/04/29 12:02:54;;;;;;;6.57;4.47;;;;;;;19.04;32.93;99124.41;5090200;28;20044;-94
2022/04/29 12:05:23;;;;;;;9.98;4.60;;;;;;;19.24;34.10;99120.56;5080496;28;20666;-93